Time;durP1;ratioP1;P1;durP2;ratioP2;P2;SDS_P1;SDS_P2;PMS_P1;PMS_P2;Temp;Humidity;BMP_temperature;BMP_pressure;BME280_temperature;BME280_humidity;BME280_pressure;Samples;Min_cycle;Max_cycle;Signal;HPM_P1;HPM_P2
2021/10/08 00:01:00;;;;;;;2.37;1.30;;;;;;;;;;5093684;28;20035;-61
2021/10/08 00:03:27;;;;;;;2.53;1.33;;;;;;;;;;5091311;28;20093;-61
2021/10/08 00:05:54;;;;;;;5.07;1.90;;;;;;;;;;5109137;28;20443;-62
2021/10/08 00:08:21;;;;;;;2.67;1.40;;;;;;;;;;5108640;28;20555;-61
2021/10/08 00:10:48;;;;;;;2.80;1.57;;;;;;;;;;5108789;28;20069;-61
2021/10/08 00:13:14;;;;;;;3.23;1.70;;;;;;;;;;5111994;28;20500;-61
2021/10/08 00:15:41;;;;;;;6.90;1.60;;;;;;;;;;5093074;28;20500;-61
2021/10/08 00:18:08;;;;;;;4.27;1.43;;;;;;;;;;5093059;28;20588;-61
2021/10/08 00:20:35;;;;;;;1.77;1.17;;;;;;;;;;5093353;28;20023;-61
2021/10/08 00:23:02;;;;;;;4.33;1.50;;;;;;;;;;5093554;28;20379;-61
2021/10/08 00:25:29;;;;;;;3.20;1.67;;;;;;;;;;5089491;28;20043;-61
2021/10/08 00:27:56;;;;;;;2.50;1.50;;;;;;;;;;5088358;28;20071;-60
2021/10/08 00:30:24;;;;;;;1.83;1.40;;;;;;;;;;5088102;28;20050;-61
2021/10/08 00:32:50;;;;;;;2.07;1.40;;;;;;;;;;5088102;28;20012;-61
2021/10/08 00:35:18;;;;;;;3.13;1.37;;;;;;;;;;5107276;28;20058;-62
2021/10/08 00:37:45;;;;;;;3.57;1.30;;;;;;;;;;5111810;28;20036;-61
2021/10/08 00:40:12;;;;;;;3.63;1.30;;;;;;;;;;5113620;28;20028;-61
2021/10/08 00:42:39;;;;;;;6.27;2.27;;;;;;;;;;5113530;28;20027;-61
2021/10/08 00:45:06;;;;;;;3.47;1.47;;;;;;;;;;5113609;28;20474;-61
2021/10/08 00:47:33;;;;;;;2.90;1.27;;;;;;;;;;5099247;28;20525;-61
2021/10/08 00:50:00;;;;;;;2.70;1.60;;;;;;;;;;5087734;28;20523;-61
2021/10/08 00:52:27;;;;;;;2.93;1.40;;;;;;;;;;5087243;28;20483;-61
2021/10/08 00:54:53;;;;;;;3.43;1.40;;;;;;;;;;5087881;28;20501;-61
2021/10/08 00:57:20;;;;;;;4.27;1.60;;;;;;;;;;5098171;28;20436;-61
2021/10/08 00:59:47;;;;;;;3.93;1.40;;;;;;;;;;5113354;28;20031;-61
2021/10/08 01:02:14;;;;;;;3.90;1.40;;;;;;;;;;5096292;28;20027;-61
2021/10/08 01:04:41;;;;;;;3.00;1.60;;;;;;;;;;5092871;28;20031;-61
2021/10/08 01:07:08;;;;;;;4.33;1.73;;;;;;;;;;5092967;28;20510;-62
2021/10/08 01:09:35;;;;;;;4.57;1.70;;;;;;;;;;5090013;28;20498;-61
2021/10/08 01:12:01;;;;;;;3.47;1.60;;;;;;;;;;5099388;28;20024;-61
2021/10/08 01:14:28;;;;;;;2.73;1.40;;;;;;;;;;5107874;28;20122;-62
2021/10/08 01:16:55;;;;;;;5.50;1.50;;;;;;;;;;5095233;28;20047;-61
2021/10/08 01:19:22;;;;;;;5.30;3.00;;;;;;;;;;5088976;28;20444;-61
2021/10/08 01:21:49;;;;;;;4.83;1.70;;;;;;;;;;5092694;28;20530;-61
2021/10/08 01:24:15;;;;;;;4.77;1.50;;;;;;;;;;5092517;28;20487;-61
2021/10/08 01:26:42;;;;;;;2.23;1.50;;;;;;;;;;5091661;28;20039;-61
2021/10/08 01:29:10;;;;;;;1.97;1.33;;;;;;;;;;5092026;28;20054;-61
2021/10/08 01:31:37;;;;;;;2.13;1.37;;;;;;;;;;5100033;28;20437;-62
2021/10/08 01:34:04;;;;;;;3.00;1.40;;;;;;;;;;5107664;28;20102;-61
2021/10/08 01:36:31;;;;;;;2.93;1.47;;;;;;;;;;5107418;28;20032;-62
2021/10/08 01:38:58;;;;;;;5.90;3.47;;;;;;;;;;5107770;28;20055;-61
2021/10/08 01:41:24;;;;;;;3.37;1.90;;;;;;;;;;5100957;28;20089;-62
2021/10/08 01:43:51;;;;;;;2.87;1.40;;;;;;;;;;5092267;28;20031;-61
2021/10/08 01:46:18;;;;;;;3.53;1.70;;;;;;;;;;5091840;28;20098;-61
2021/10/08 01:48:45;;;;;;;4.67;1.90;;;;;;;;;;5092149;28;20474;-62
2021/10/08 01:51:12;;;;;;;2.30;1.40;;;;;;;;;;5092343;28;20028;-61
2021/10/08 01:53:38;;;;;;;3.13;1.70;;;;;;;;;;5098584;28;20112;-62
2021/10/08 01:56:06;;;;;;;5.23;1.40;;;;;;;;;;5107229;28;20024;-62
2021/10/08 01:58:32;;;;;;;3.70;1.70;;;;;;;;;;5107550;28;20440;-61
2021/10/08 02:00:59;;;;;;;2.93;1.50;;;;;;;;;;5107281;28;20386;-62
2021/10/08 02:03:27;;;;;;;2.00;1.50;;;;;;;;;;5106835;28;20027;-62
2021/10/08 02:05:53;;;;;;;2.40;1.40;;;;;;;;;;5103036;28;20039;-62
2021/10/08 02:08:20;;;;;;;3.03;1.63;;;;;;;;;;5092216;28;20483;-62
2021/10/08 02:10:47;;;;;;;3.30;1.63;;;;;;;;;;5092130;28;20099;-61
2021/10/08 02:13:14;;;;;;;2.40;1.30;;;;;;;;;;5092029;28;20103;-61
2021/10/08 02:15:40;;;;;;;2.07;1.20;;;;;;;;;;5091627;28;20352;-61
2021/10/08 02:18:07;;;;;;;2.37;1.30;;;;;;;;;;5095476;28;20020;-61
2021/10/08 02:20:34;;;;;;;4.20;1.57;;;;;;;;;;5090262;28;20548;-61
2021/10/08 02:23:01;;;;;;;2.47;1.20;;;;;;;;;;5086687;28;20478;-61
2021/10/08 02:25:27;;;;;;;2.70;1.40;;;;;;;;;;5086659;28;20020;-61
2021/10/08 02:27:54;;;;;;;5.73;1.60;;;;;;;;;;5091088;28;20016;-61
2021/10/08 02:30:21;;;;;;;6.47;1.30;;;;;;;;;;5104103;28;20040;-61
2021/10/08 02:32:48;;;;;;;3.03;1.50;;;;;;;;;;5112304;28;20030;-61
2021/10/08 02:35:14;;;;;;;1.90;1.10;;;;;;;;;;5112048;28;20016;-61
2021/10/08 02:37:41;;;;;;;2.43;1.40;;;;;;;;;;5113120;28;20099;-61
2021/10/08 02:40:08;;;;;;;2.17;1.23;;;;;;;;;;5111206;28;20081;-61
2021/10/08 02:42:35;;;;;;;7.40;3.00;;;;;;;;;;5097024;28;20059;-61
2021/10/08 02:45:02;;;;;;;2.33;1.30;;;;;;;;;;5090145;28;20063;-61
2021/10/08 02:47:29;;;;;;;2.57;1.40;;;;;;;;;;5090184;28;20024;-61
2021/10/08 02:49:55;;;;;;;3.30;1.30;;;;;;;;;;5094218;28;20031;-61
2021/10/08 02:52:22;;;;;;;5.37;1.97;;;;;;;;;;5095439;28;20066;-61
2021/10/08 02:54:49;;;;;;;6.60;3.40;;;;;;;;;;5106702;28;20031;-61
2021/10/08 02:57:16;;;;;;;8.60;2.03;;;;;;;;;;5115631;28;20050;-61
2021/10/08 02:59:42;;;;;;;2.87;1.60;;;;;;;;;;5115798;28;20023;-61
2021/10/08 03:02:09;;;;;;;2.53;1.50;;;;;;;;;;5111429;28;20477;-61
2021/10/08 03:04:36;;;;;;;2.60;1.40;;;;;;;;;;5108435;28;20032;-61
2021/10/08 03:07:03;;;;;;;15.37;1.80;;;;;;;;;;5109713;28;20480;-61
2021/10/08 03:09:30;;;;;;;4.83;1.63;;;;;;;;;;5110251;28;20023;-61
2021/10/08 03:11:56;;;;;;;2.63;1.30;;;;;;;;;;5112755;28;20024;-61
2021/10/08 03:14:23;;;;;;;2.23;1.37;;;;;;;;;;5107127;28;20024;-61
2021/10/08 03:16:50;;;;;;;4.07;1.50;;;;;;;;;;5095116;28;20072;-61
2021/10/08 03:19:17;;;;;;;4.23;1.37;;;;;;;;;;5094592;28;20034;-61
2021/10/08 03:21:43;;;;;;;3.40;1.70;;;;;;;;;;5094922;28;20021;-61
2021/10/08 03:24:10;;;;;;;4.53;1.70;;;;;;;;;;5091356;28;20031;-61
2021/10/08 03:26:37;;;;;;;2.23;1.40;;;;;;;;;;5089274;28;20053;-61
2021/10/08 03:29:04;;;;;;;4.93;1.70;;;;;;;;;;5089006;28;20032;-61
2021/10/08 03:31:31;;;;;;;3.93;1.83;;;;;;;;;;5103600;28;20356;-62
2021/10/08 03:33:57;;;;;;;6.27;1.50;;;;;;;;;;5112240;28;20539;-61
2021/10/08 03:36:30;;;;;;;3.00;1.33;;;;;;;;;;5099725;28;20040;-61
2021/10/08 03:38:57;;;;;;;3.60;1.43;;;;;;;;;;5094319;28;20039;-61
2021/10/08 03:41:25;;;;;;;2.63;1.23;;;;;;;;;;5094523;28;20052;-61
2021/10/08 03:43:55;;;;;;;2.70;1.40;;;;;;;;;;5094054;28;20028;-61
2021/10/08 03:46:22;;;;;;;3.10;1.63;;;;;;;;;;5104359;28;20035;-60
2021/10/08 03:51:28;;;;;;;4.40;1.30;;;;;;;;;;5109378;28;20562;-59
2021/10/08 03:53:55;;;;;;;3.20;1.57;;;;;;;;;;5109615;28;20058;-60
2021/10/08 03:56:22;;;;;;;2.67;1.47;;;;;;;;;;5111808;28;20031;-61
2021/10/08 03:58:52;;;;;;;2.73;1.30;;;;;;;;;;5096345;28;20056;-61
2021/10/08 04:01:19;;;;;;;11.33;2.27;;;;;;;;;;5093976;28;20024;-60
2021/10/08 04:03:46;;;;;;;5.50;2.53;;;;;;;;;;5093517;28;20021;-60
2021/10/08 04:06:12;;;;;;;4.57;2.23;;;;;;;;;;5093718;28;20016;-60
2021/10/08 04:08:39;;;;;;;4.60;2.33;;;;;;;;;;5090889;28;20497;-60
2021/10/08 04:11:06;;;;;;;4.07;2.03;;;;;;;;;;5105209;28;20031;-59
2021/10/08 04:13:33;;;;;;;5.03;2.03;;;;;;;;;;5108709;28;20015;-59
2021/10/08 04:15:59;;;;;;;3.37;1.80;;;;;;;;;;5108670;28;20035;-59
2021/10/08 04:18:26;;;;;;;5.90;1.90;;;;;;;;;;5110758;28;20027;-59
2021/10/08 04:20:53;;;;;;;2.23;1.37;;;;;;;;;;5113722;28;20038;-59
2021/10/08 04:23:20;;;;;;;5.23;1.70;;;;;;;;;;5096929;28;20082;-59
2021/10/08 04:25:47;;;;;;;6.47;2.13;;;;;;;;;;5093567;28;20027;-59
2021/10/08 04:28:14;;;;;;;2.97;1.70;;;;;;;;;;5093403;28;20032;-60
2021/10/08 04:30:41;;;;;;;7.13;1.47;;;;;;;;;;5090718;28;20114;-59
2021/10/08 04:33:17;;;;;;;2.20;1.33;;;;;;;;;;5087914;28;20028;-59
2021/10/08 04:35:44;;;;;;;2.90;1.57;;;;;;;;;;5067458;28;20064;-59
2021/10/08 04:38:11;;;;;;;5.13;1.60;;;;;;;;;;5067820;28;20098;-60
2021/10/08 04:40:38;;;;;;;6.93;1.50;;;;;;;;;;5069621;28;20021;-62
2021/10/08 04:43:05;;;;;;;4.97;1.60;;;;;;;;;;5072918;28;20017;-59
2021/10/08 04:45:32;;;;;;;3.17;1.40;;;;;;;;;;5079647;28;20039;-59
2021/10/08 04:47:59;;;;;;;6.57;1.40;;;;;;;;;;5113455;28;20486;-59
2021/10/08 04:50:26;;;;;;;4.80;1.40;;;;;;;;;;5113480;28;20102;-59
2021/10/08 04:52:53;;;;;;;4.43;1.60;;;;;;;;;;5110853;28;20059;-59
2021/10/08 04:55:20;;;;;;;4.70;2.30;;;;;;;;;;5107963;28;20047;-59
2021/10/08 04:57:46;;;;;;;4.37;1.67;;;;;;;;;;5102905;28;20020;-59
2021/10/08 05:00:14;;;;;;;2.77;1.53;;;;;;;;;;5087323;28;20031;-59
2021/10/08 05:02:41;;;;;;;6.83;1.77;;;;;;;;;;5088653;28;20470;-59
2021/10/08 05:05:08;;;;;;;2.70;1.77;;;;;;;;;;5092879;28;20479;-59
2021/10/08 05:07:34;;;;;;;7.53;2.20;;;;;;;;;;5092852;28;20026;-59
2021/10/08 05:10:01;;;;;;;4.77;1.80;;;;;;;;;;5098020;28;20042;-59
2021/10/08 05:12:28;;;;;;;6.67;2.53;;;;;;;;;;5113229;28;20474;-59
2021/10/08 05:14:55;;;;;;;5.27;1.87;;;;;;;;;;5111354;28;20084;-59
2021/10/08 05:17:22;;;;;;;2.80;1.50;;;;;;;;;;5107365;28;20114;-59
2021/10/08 05:19:49;;;;;;;3.93;1.53;;;;;;;;;;5107782;28;20031;-59
2021/10/08 05:22:16;;;;;;;5.67;1.77;;;;;;;;;;5100202;28;20435;-59
2021/10/08 05:24:42;;;;;;;3.87;2.00;;;;;;;;;;5087961;28;20044;-59
2021/10/08 05:27:09;;;;;;;5.30;1.90;;;;;;;;;;5092408;28;20016;-59
2021/10/08 05:29:36;;;;;;;5.87;1.83;;;;;;;;;;5092360;28;20424;-59
2021/10/08 05:32:03;;;;;;;2.57;1.53;;;;;;;;;;5097079;28;20024;-59
2021/10/08 05:34:29;;;;;;;3.53;1.47;;;;;;;;;;5112328;28;20024;-59
2021/10/08 05:36:56;;;;;;;3.30;1.73;;;;;;;;;;5111697;28;20042;-59
2021/10/08 05:39:23;;;;;;;3.17;1.97;;;;;;;;;;5107562;28;20063;-59
2021/10/08 05:41:50;;;;;;;4.27;1.60;;;;;;;;;;5107386;28;20028;-59
2021/10/08 05:44:17;;;;;;;2.40;1.47;;;;;;;;;;5100589;28;20032;-59
2021/10/08 05:46:43;;;;;;;2.97;1.50;;;;;;;;;;5086904;28;20047;-59
2021/10/08 05:49:10;;;;;;;11.33;1.90;;;;;;;;;;5092135;28;20027;-59
2021/10/08 05:51:37;;;;;;;4.93;1.43;;;;;;;;;;5091891;28;20442;-59
2021/10/08 05:54:04;;;;;;;4.37;1.40;;;;;;;;;;5092329;28;20092;-59
2021/10/08 05:56:31;;;;;;;4.73;1.80;;;;;;;;;;5101318;28;20035;-59
2021/10/08 05:58:57;;;;;;;3.50;1.70;;;;;;;;;;5112117;28;20024;-59
2021/10/08 06:01:24;;;;;;;3.37;1.57;;;;;;;;;;5107021;28;20061;-59
2021/10/08 06:03:51;;;;;;;3.20;1.97;;;;;;;;;;5107052;28;20065;-59
2021/10/08 06:06:18;;;;;;;3.20;1.63;;;;;;;;;;5107080;28;20475;-59
2021/10/08 06:08:45;;;;;;;3.90;2.03;;;;;;;;;;5095122;28;20031;-59
2021/10/08 06:11:12;;;;;;;2.37;1.50;;;;;;;;;;5091959;28;20032;-59
2021/10/08 06:13:39;;;;;;;3.20;1.60;;;;;;;;;;5095270;28;20418;-59
2021/10/08 06:16:06;;;;;;;5.30;2.10;;;;;;;;;;5095855;28;20032;-59
2021/10/08 06:18:33;;;;;;;2.97;1.63;;;;;;;;;;5095772;28;20020;-59
2021/10/08 06:21:00;;;;;;;3.30;2.00;;;;;;;;;;5110030;28;20030;-59
2021/10/08 06:23:26;;;;;;;3.50;1.70;;;;;;;;;;5110680;28;20482;-59
2021/10/08 06:25:53;;;;;;;5.07;1.63;;;;;;;;;;5110801;28;20065;-59
2021/10/08 06:28:20;;;;;;;3.90;1.70;;;;;;;;;;5110951;28;20454;-59
2021/10/08 06:30:47;;;;;;;3.13;1.70;;;;;;;;;;5110721;28;20482;-59
2021/10/08 06:33:13;;;;;;;3.63;1.60;;;;;;;;;;5100784;28;20486;-59
2021/10/08 06:35:41;;;;;;;2.40;1.43;;;;;;;;;;5095541;28;20466;-59
2021/10/08 06:38:09;;;;;;;3.27;2.10;;;;;;;;;;5095555;28;20038;-59
2021/10/08 06:40:37;;;;;;;2.80;1.80;;;;;;;;;;5095251;28;20028;-59
2021/10/08 06:43:05;;;;;;;3.57;1.70;;;;;;;;;;5095643;28;20089;-59
2021/10/08 06:45:32;;;;;;;2.63;1.83;;;;;;;;;;5107708;28;20111;-59
2021/10/08 06:47:59;;;;;;;5.63;1.57;;;;;;;;;;5110515;28;20016;-59
2021/10/08 06:50:26;;;;;;;4.70;1.90;;;;;;;;;;5110342;28;20089;-59
2021/10/08 06:52:53;;;;;;;2.67;1.53;;;;;;;;;;5110137;28;20043;-59
2021/10/08 06:55:19;;;;;;;2.70;1.83;;;;;;;;;;5113695;28;20095;-59
2021/10/08 06:57:46;;;;;;;5.37;1.90;;;;;;;;;;5074941;28;20031;-59
2021/10/08 07:00:13;;;;;;;3.70;1.73;;;;;;;;;;5074980;28;20090;-58
2021/10/08 07:02:53;;;;;;;3.97;1.90;;;;;;;;;;5074708;28;20116;-59
2021/10/08 07:05:21;;;;;;;4.80;1.97;;;;;;;;;;5074701;28;20032;-58
2021/10/08 07:07:48;;;;;;;3.03;1.70;;;;;;;;;;5082725;28;20458;-59
2021/10/08 07:10:15;;;;;;;3.77;1.73;;;;;;;;;;5109980;28;20015;-59
2021/10/08 07:12:41;;;;;;;6.23;1.60;;;;;;;;;;5092395;28;20397;-59
2021/10/08 07:15:16;;;;;;;4.13;1.80;;;;;;;;;;5089599;28;20077;-59
2021/10/08 07:17:45;;;;;;;3.08;1.77;;;;;;;;;;5094080;28;20097;-58
2021/10/08 07:20:13;;;;;;;3.87;1.87;;;;;;;;;;5094516;28;20486;-59
2021/10/08 07:22:40;;;;;;;5.43;1.93;;;;;;;;;;5110172;28;20050;-59
2021/10/08 07:25:07;;;;;;;4.43;2.20;;;;;;;;;;5115036;28;20023;-58
2021/10/08 07:27:35;;;;;;;8.40;2.00;;;;;;;;;;5098516;28;20016;-58
2021/10/08 07:30:02;;;;;;;3.37;2.10;;;;;;;;;;5089572;28;20051;-59
2021/10/08 07:32:28;;;;;;;3.37;1.73;;;;;;;;;;5089586;28;20412;-59
2021/10/08 07:34:55;;;;;;;3.90;1.93;;;;;;;;;;5089293;28;20024;-59
2021/10/08 07:37:23;;;;;;;3.00;1.83;;;;;;;;;;5101927;28;20096;-59
2021/10/08 07:39:50;;;;;;;3.57;2.17;;;;;;;;;;5113343;28;20027;-59
2021/10/08 07:42:16;;;;;;;5.73;2.47;;;;;;;;;;5115019;28;20531;-58
2021/10/08 07:44:43;;;;;;;4.90;1.80;;;;;;;;;;5114659;28;20094;-59
2021/10/08 07:47:10;;;;;;;3.20;2.00;;;;;;;;;;5114776;28;20020;-59
2021/10/08 07:49:37;;;;;;;2.43;1.47;;;;;;;;;;5096490;28;20031;-59
2021/10/08 07:52:03;;;;;;;3.97;1.70;;;;;;;;;;5089830;28;20478;-58
2021/10/08 07:54:30;;;;;;;3.13;1.90;;;;;;;;;;5088458;28;20402;-58
2021/10/08 07:56:57;;;;;;;4.97;1.60;;;;;;;;;;5088578;28;20482;-59
2021/10/08 07:59:24;;;;;;;4.33;2.10;;;;;;;;;;5088749;28;20032;-58
2021/10/08 08:01:50;;;;;;;4.07;2.00;;;;;;;;;;5092891;28;20040;-58
2021/10/08 08:04:17;;;;;;;4.03;2.37;;;;;;;;;;5093791;28;20024;-59
2021/10/08 08:06:44;;;;;;;2.93;1.80;;;;;;;;;;5093983;28;20051;-58
2021/10/08 08:09:11;;;;;;;3.07;1.80;;;;;;;;;;5093611;28;20081;-59
2021/10/08 08:11:38;;;;;;;4.60;2.20;;;;;;;;;;5093622;28;20106;-58
2021/10/08 08:14:05;;;;;;;3.57;1.93;;;;;;;;;;5107248;28;20035;-59
2021/10/08 08:16:31;;;;;;;6.07;2.17;;;;;;;;;;5095879;28;20036;-59
2021/10/08 08:18:58;;;;;;;5.17;2.73;;;;;;;;;;5088264;28;20057;-58
2021/10/08 08:21:25;;;;;;;3.50;2.20;;;;;;;;;;5088364;28;20036;-59
2021/10/08 08:23:52;;;;;;;6.13;2.57;;;;;;;;;;5091067;28;20026;-59
2021/10/08 08:26:18;;;;;;;4.47;2.27;;;;;;;;;;5102423;28;20061;-59
2021/10/08 08:28:45;;;;;;;3.93;2.23;;;;;;;;;;5114033;28;20026;-59
2021/10/08 08:31:13;;;;;;;6.17;2.40;;;;;;;;;;5112170;28;20036;-59
2021/10/08 08:33:40;;;;;;;4.67;2.83;;;;;;;;;;5113689;28;20024;-58
2021/10/08 08:36:06;;;;;;;4.03;2.50;;;;;;;;;;5110054;28;20024;-59
2021/10/08 08:38:33;;;;;;;3.80;2.17;;;;;;;;;;5098164;28;20425;-59
2021/10/08 08:41:01;;;;;;;6.40;2.60;;;;;;;;;;5088015;28;20487;-62
2021/10/08 08:43:28;;;;;;;5.03;2.30;;;;;;;;;;5087317;28;20016;-59
2021/10/08 08:45:56;;;;;;;4.60;2.60;;;;;;;;;;5090084;28;20226;-59
2021/10/08 08:48:22;;;;;;;5.10;2.00;;;;;;;;;;5093559;28;20020;-59
2021/10/08 08:50:49;;;;;;;3.13;2.10;;;;;;;;;;5113318;28;20048;-58
2021/10/08 08:53:18;;;;;;;4.37;2.67;;;;;;;;;;5113215;28;20113;-58
2021/10/08 08:55:45;;;;;;;4.63;2.43;;;;;;;;;;5113194;28;20167;-58
2021/10/08 08:58:12;;;;;;;5.83;2.60;;;;;;;;;;5110118;28;20016;-59
2021/10/08 09:00:39;;;;;;;5.00;2.40;;;;;;;;;;5089035;28;20418;-58
2021/10/08 09:03:07;;;;;;;4.20;2.73;;;;;;;;;;5087458;28;20055;-58
2021/10/08 09:05:35;;;;;;;3.40;2.43;;;;;;;;;;5087380;28;20024;-59
2021/10/08 09:08:04;;;;;;;4.00;2.67;;;;;;;;;;5089548;28;20755;-58
2021/10/08 09:10:32;;;;;;;4.40;2.37;;;;;;;;;;5094073;28;20103;-58
2021/10/08 09:12:59;;;;;;;5.10;2.20;;;;;;;;;;5112544;28;20061;-58
2021/10/08 09:15:29;;;;;;;4.30;2.30;;;;;;;;;;5112849;28;20458;-58
2021/10/08 09:18:07;;;;;;;4.03;2.50;;;;;;;;;;5112954;28;20405;-58
2021/10/08 09:20:34;;;;;;;5.70;2.70;;;;;;;;;;5110093;28;20024;-59
2021/10/08 09:23:01;;;;;;;4.73;2.90;;;;;;;;;;5101164;28;20028;-59
2021/10/08 09:25:33;;;;;;;5.93;3.07;;;;;;;;;;5102534;28;20022;-58
2021/10/08 09:28:01;;;;;;;5.47;2.93;;;;;;;;;;5107302;28;20046;-59
2021/10/08 09:30:35;;;;;;;6.30;2.50;;;;;;;;;;5109873;28;20360;-58
2021/10/08 09:33:05;;;;;;;4.72;2.65;;;;;;;;;;5112853;28;20085;-59
2021/10/08 09:35:32;;;;;;;4.53;2.47;;;;;;;;;;5096719;28;20021;-60
2021/10/08 09:38:01;;;;;;;5.23;2.60;;;;;;;;;;5092180;28;20020;-59
2021/10/08 09:40:29;;;;;;;5.47;2.70;;;;;;;;;;5093244;28;20112;-59
2021/10/08 09:43:00;;;;;;;5.90;2.77;;;;;;;;;;5109240;28;20046;-58
2021/10/08 09:45:38;;;;;;;3.20;2.23;;;;;;;;;;5107476;28;20032;-59
2021/10/08 09:48:05;;;;;;;4.33;2.90;;;;;;;;;;5109679;28;20047;-59
2021/10/08 09:50:31;;;;;;;4.83;2.80;;;;;;;;;;5110787;28;20031;-59
2021/10/08 09:53:15;;;;;;;4.33;2.40;;;;;;;;;;5095532;28;20506;-59
2021/10/08 09:55:45;;;;;;;6.00;2.40;;;;;;;;;;5096419;28;20020;-59
2021/10/08 09:58:12;;;;;;;4.87;2.27;;;;;;;;;;5096321;28;20043;-58
2021/10/08 10:01:01;;;;;;;4.10;3.00;;;;;;;;;;5095918;28;20074;-58
2021/10/08 10:03:28;;;;;;;5.70;2.73;;;;;;;;;;5099033;28;20528;-58
2021/10/08 10:05:56;;;;;;;5.53;3.17;;;;;;;;;;5111879;28;20474;-59
2021/10/08 10:08:23;;;;;;;4.63;2.60;;;;;;;;;;5111304;28;20035;-59
2021/10/08 10:10:50;;;;;;;3.83;2.60;;;;;;;;;;5111245;28;20437;-59
2021/10/08 10:13:17;;;;;;;5.00;2.77;;;;;;;;;;5110666;28;20032;-59
2021/10/08 10:15:45;;;;;;;5.53;3.13;;;;;;;;;;5106929;28;20017;-59
2021/10/08 10:18:13;;;;;;;4.70;3.03;;;;;;;;;;5095636;28;20028;-59
2021/10/08 10:20:41;;;;;;;4.23;2.90;;;;;;;;;;5096113;28;20351;-58
2021/10/08 10:23:09;;;;;;;3.60;2.40;;;;;;;;;;5096022;28;20020;-59
2021/10/08 10:25:36;;;;;;;4.77;2.97;;;;;;;;;;5095967;28;20024;-58
2021/10/08 10:28:04;;;;;;;5.70;3.40;;;;;;;;;;5091295;28;20028;-58
2021/10/08 10:30:31;;;;;;;4.27;2.77;;;;;;;;;;5090397;28;20021;-59
2021/10/08 10:32:58;;;;;;;4.60;3.10;;;;;;;;;;5090323;28;20036;-59
2021/10/08 10:35:39;;;;;;;4.10;3.00;;;;;;;;;;5108184;28;20027;-59
2021/10/08 10:38:23;;;;;;;7.43;3.00;;;;;;;;;;5114726;28;20397;-58
2021/10/08 10:41:09;;;;;;;7.50;3.05;;;;;;;;;;5116006;28;20043;-58
2021/10/08 10:43:38;;;;;;;6.63;3.17;;;;;;;;;;5115928;28;20016;-59
2021/10/08 10:46:33;;;;;;;4.47;3.07;;;;;;;;;;5110807;28;20093;-58
2021/10/08 10:52:07;;;;;;;3.97;2.58;;;;;;;;;;5090024;28;20062;-58
2021/10/08 10:54:49;;;;;;;5.67;3.63;;;;;;;;;;5077096;28;20085;-58
2021/10/08 10:57:23;;;;;;;5.43;3.23;;;;;;;;;;5090018;28;20035;-58
2021/10/08 10:59:50;;;;;;;6.23;3.10;;;;;;;;;;5111117;28;20542;-59
2021/10/08 11:02:17;;;;;;;8.37;4.30;;;;;;;;;;5113625;28;20028;-58
2021/10/08 11:04:46;;;;;;;8.07;3.40;;;;;;;;;;5115785;28;20084;-58
2021/10/08 11:07:12;;;;;;;7.17;3.20;;;;;;;;;;5115420;28;20112;-58
2021/10/08 11:09:40;;;;;;;4.03;2.93;;;;;;;;;;5115130;28;20028;-58
2021/10/08 11:12:26;;;;;;;5.77;3.10;;;;;;;;;;5112084;28;20034;-58
2021/10/08 11:15:12;;;;;;;6.80;3.00;;;;;;;;;;5089527;28;20773;-59
2021/10/08 11:17:54;;;;;;;4.57;2.90;;;;;;;;;;5089367;28;20097;-58
2021/10/08 11:20:45;;;;;;;4.50;3.00;;;;;;;;;;5089161;28;20028;-59
2021/10/08 11:23:21;;;;;;;5.07;2.90;;;;;;;;;;5082538;28;20085;-58
2021/10/08 11:25:49;;;;;;;4.43;2.93;;;;;;;;;;5108069;28;20027;-58
2021/10/08 11:28:16;;;;;;;4.33;2.90;;;;;;;;;;5112622;28;20419;-58
2021/10/08 11:30:43;;;;;;;4.70;3.40;;;;;;;;;;5094277;28;20028;-58
2021/10/08 11:33:10;;;;;;;4.90;3.03;;;;;;;;;;5093926;28;20519;-59
2021/10/08 11:35:38;;;;;;;4.50;3.13;;;;;;;;;;5089212;28;20479;-58
2021/10/08 11:38:05;;;;;;;7.20;3.30;;;;;;;;;;5088947;28;20028;-58
2021/10/08 11:40:34;;;;;;;4.57;2.80;;;;;;;;;;5109156;28;20023;-58
2021/10/08 11:43:05;;;;;;;5.90;3.20;;;;;;;;;;5108706;28;20063;-59
2021/10/08 11:45:38;;;;;;;4.87;3.00;;;;;;;;;;5094082;28;20042;-59
2021/10/08 11:48:14;;;;;;;3.83;2.90;;;;;;;;;;5094295;28;20030;-58
2021/10/08 11:53:26;;;;;;;7.53;2.78;;;;;;;;;;5096657;28;20129;-59
2021/10/08 11:55:53;;;;;;;5.80;2.70;;;;;;;;;;5112819;28;20035;-58
2021/10/08 11:58:22;;;;;;;4.80;2.87;;;;;;;;;;5109092;28;20031;-59
2021/10/08 12:00:49;;;;;;;6.53;3.13;;;;;;;;;;5109066;28;20023;-58
2021/10/08 12:03:18;;;;;;;3.70;2.67;;;;;;;;;;5107264;28;20386;-58
2021/10/08 12:05:50;;;;;;;5.17;2.90;;;;;;;;;;5110088;28;20111;-59
2021/10/08 12:08:37;;;;;;;4.93;3.00;;;;;;;;;;5114212;28;20031;-58
2021/10/08 12:11:07;;;;;;;6.63;3.10;;;;;;;;;;5112792;28;20028;-58
2021/10/08 12:13:35;;;;;;;4.60;3.30;;;;;;;;;;5093900;28;20509;-58
2021/10/08 12:16:02;;;;;;;3.80;2.77;;;;;;;;;;5093415;28;20099;-58
2021/10/08 12:18:29;;;;;;;3.83;2.83;;;;;;;;;;5092016;28;20398;-58
2021/10/08 12:21:16;;;;;;;4.57;3.27;;;;;;;;;;5088692;28;20510;-58
2021/10/08 12:23:43;;;;;;;4.43;3.10;;;;;;;;;;5088054;28;20031;-59
2021/10/08 12:26:11;;;;;;;3.83;2.93;;;;;;;;;;5088349;28;20035;-58
2021/10/08 12:28:38;;;;;;;7.40;3.30;;;;;;;;;;5096078;28;20020;-58
2021/10/08 12:31:07;;;;;;;4.00;3.00;;;;;;;;;;5113928;28;20322;-58
2021/10/08 12:33:36;;;;;;;5.37;3.17;;;;;;;;;;5113027;28;20082;-58
2021/10/08 12:36:18;;;;;;;4.07;2.90;;;;;;;;;;5113770;28;20031;-59
2021/10/08 12:38:51;;;;;;;4.70;2.87;;;;;;;;;;5113261;28;20019;-58
2021/10/08 12:41:27;;;;;;;5.90;3.43;;;;;;;;;;5099617;28;20531;-58
2021/10/08 12:44:08;;;;;;;5.60;3.90;;;;;;;;;;5087791;28;20032;-58
2021/10/08 12:46:36;;;;;;;6.43;3.40;;;;;;;;;;5087818;28;20039;-58
2021/10/08 12:49:03;;;;;;;4.03;2.73;;;;;;;;;;5087244;28;20059;-58
2021/10/08 12:51:33;;;;;;;5.23;3.37;;;;;;;;;;5091487;28;20102;-58
2021/10/08 12:54:13;;;;;;;3.80;2.90;;;;;;;;;;5107098;28;20355;-58
2021/10/08 12:56:40;;;;;;;4.37;2.40;;;;;;;;;;5113216;28;20032;-58
2021/10/08 12:59:07;;;;;;;5.20;3.87;;;;;;;;;;5113092;28;20562;-58
2021/10/08 13:01:34;;;;;;;4.27;2.70;;;;;;;;;;5112797;28;20084;-58
2021/10/08 13:04:27;;;;;;;7.03;3.37;;;;;;;;;;5108379;28;20027;-58
2021/10/08 13:07:14;;;;;;;5.70;2.80;;;;;;;;;;5063085;28;20040;-58
2021/10/08 13:10:02;;;;;;;4.97;2.80;;;;;;;;;;5067045;28;20139;-58
2021/10/08 13:12:42;;;;;;;3.90;2.55;;;;;;;;;;5068574;28;20078;-58
2021/10/08 13:15:14;;;;;;;3.60;2.60;;;;;;;;;;5072014;28;20021;-58
2021/10/08 13:17:41;;;;;;;5.07;2.40;;;;;;;;;;5096663;28;20035;-58
2021/10/08 13:20:08;;;;;;;3.50;2.40;;;;;;;;;;5112963;28;20042;-58
2021/10/08 13:22:36;;;;;;;3.37;2.67;;;;;;;;;;5112627;28;20386;-58
2021/10/08 13:25:04;;;;;;;3.63;2.70;;;;;;;;;;5110499;28;20471;-58
2021/10/08 13:27:33;;;;;;;5.07;2.70;;;;;;;;;;5107656;28;20023;-58
2021/10/08 13:30:01;;;;;;;4.77;3.10;;;;;;;;;;5091855;28;20035;-58
2021/10/08 13:32:28;;;;;;;3.47;2.50;;;;;;;;;;5087168;28;20044;-58
2021/10/08 13:34:55;;;;;;;6.37;2.40;;;;;;;;;;5088695;28;20043;-58
2021/10/08 13:37:22;;;;;;;3.50;2.60;;;;;;;;;;5092349;28;20064;-58
2021/10/08 13:39:49;;;;;;;5.60;3.43;;;;;;;;;;5104461;28;20047;-58
2021/10/08 13:42:16;;;;;;;7.53;2.70;;;;;;;;;;5112652;28;20069;-58
2021/10/08 13:44:43;;;;;;;5.33;2.30;;;;;;;;;;5112636;28;20023;-58
2021/10/08 13:47:10;;;;;;;4.60;2.90;;;;;;;;;;5110692;28;20036;-58
2021/10/08 13:49:37;;;;;;;4.40;2.60;;;;;;;;;;5107345;28;20054;-58
2021/10/08 13:52:07;;;;;;;4.77;2.30;;;;;;;;;;5092243;28;20032;-58
2021/10/08 13:54:34;;;;;;;3.43;2.40;;;;;;;;;;5086792;28;20506;-58
2021/10/08 13:57:01;;;;;;;4.10;2.70;;;;;;;;;;5088010;28;20360;-59
2021/10/08 13:59:29;;;;;;;6.33;2.17;;;;;;;;;;5092097;28;20496;-58
2021/10/08 14:04:44;;;;;;;3.80;2.30;;;;;;;;;;5104536;28;20035;-58
2021/10/08 14:07:37;;;;;;;6.37;2.60;;;;;;;;;;5092238;28;20032;-58
2021/10/08 14:10:17;;;;;;;4.10;2.67;;;;;;;;;;5088297;28;20039;-59
2021/10/08 14:12:45;;;;;;;4.57;2.40;;;;;;;;;;5087042;28;20024;-59
2021/10/08 14:15:12;;;;;;;4.03;2.70;;;;;;;;;;5097079;28;20046;-58
2021/10/08 14:17:39;;;;;;;3.90;2.33;;;;;;;;;;5106813;28;20039;-58
2021/10/08 14:20:06;;;;;;;6.23;2.50;;;;;;;;;;5109470;28;20390;-58
2021/10/08 14:22:33;;;;;;;4.97;2.50;;;;;;;;;;5112295;28;20034;-59
2021/10/08 14:25:01;;;;;;;3.40;2.40;;;;;;;;;;5112435;28;20026;-58
2021/10/08 14:27:33;;;;;;;5.10;2.23;;;;;;;;;;5100201;28;20024;-58
2021/10/08 14:30:01;;;;;;;3.80;3.10;;;;;;;;;;5091876;28;20552;-58
2021/10/08 14:32:28;;;;;;;3.27;2.37;;;;;;;;;;5087984;28;20107;-58
2021/10/08 14:34:55;;;;;;;4.03;2.57;;;;;;;;;;5089933;28;20043;-58
2021/10/08 14:37:22;;;;;;;4.80;2.87;;;;;;;;;;5090302;28;20466;-58
2021/10/08 14:39:49;;;;;;;6.07;2.33;;;;;;;;;;5101698;28;20543;-58
2021/10/08 14:42:16;;;;;;;3.67;2.47;;;;;;;;;;5113470;28;20027;-58
2021/10/08 14:44:42;;;;;;;3.67;2.37;;;;;;;;;;5115940;28;20047;-58
2021/10/08 14:47:09;;;;;;;6.17;2.53;;;;;;;;;;5115942;28;20016;-59
2021/10/08 14:49:36;;;;;;;2.83;2.00;;;;;;;;;;5115363;28;20028;-58
2021/10/08 14:52:05;;;;;;;3.20;2.37;;;;;;;;;;5100804;28;20024;-58
2021/10/08 14:59:56;;;;;;;3.60;2.20;;;;;;;;;;5089786;28;20028;-58
2021/10/08 15:02:24;;;;;;;3.53;2.57;;;;;;;;;;5091059;28;20032;-58
2021/10/08 15:04:51;;;;;;;4.20;2.67;;;;;;;;;;5108381;28;20028;-58
2021/10/08 15:07:18;;;;;;;6.50;2.60;;;;;;;;;;5114975;28;20024;-58